sensor_id;sensor_type;location;lat;lon;timestamp;temperature;humidity
5556;DHT22;2801;50.972;7.856;2023-04-03T00:01:08;0.40;99.90
5556;DHT22;2801;50.972;7.856;2023-04-03T00:03:36;0.40;99.90
5556;DHT22;2801;50.972;7.856;2023-04-03T00:06:05;0.40;99.90
5556;DHT22;2801;50.972;7.856;2023-04-03T00:08:37;0.40;99.90
5556;DHT22;2801;50.972;7.856;2023-04-03T00:11:05;0.50;99.90
5556;DHT22;2801;50.972;7.856;2023-04-03T00:13:33;0.50;99.90
5556;DHT22;2801;50.972;7.856;2023-04-03T00:16:01;0.50;99.90
5556;DHT22;2801;50.972;7.856;2023-04-03T00:18:29;0.50;99.90
5556;DHT22;2801;50.972;7.856;2023-04-03T00:20:56;0.50;99.90
5556;DHT22;2801;50.972;7.856;2023-04-03T00:23:23;0.40;99.90
5556;DHT22;2801;50.972;7.856;2023-04-03T00:25:51;0.50;99.90
5556;DHT22;2801;50.972;7.856;2023-04-03T00:28:18;0.50;99.90
5556;DHT22;2801;50.972;7.856;2023-04-03T00:30:48;0.40;99.90
5556;DHT22;2801;50.972;7.856;2023-04-03T00:33:16;0.50;99.90
5556;DHT22;2801;50.972;7.856;2023-04-03T00:35:43;0.50;99.90
5556;DHT22;2801;50.972;7.856;2023-04-03T00:38:10;0.50;99.90
5556;DHT22;2801;50.972;7.856;2023-04-03T00:40:41;0.40;99.90
5556;DHT22;2801;50.972;7.856;2023-04-03T00:43:22;0.40;99.90
5556;DHT22;2801;50.972;7.856;2023-04-03T00:45:52;0.40;99.90
5556;DHT22;2801;50.972;7.856;2023-04-03T00:48:32;0.30;99.90
5556;DHT22;2801;50.972;7.856;2023-04-03T00:51:06;0.30;99.90
5556;DHT22;2801;50.972;7.856;2023-04-03T00:53:54;0.20;99.90
5556;DHT22;2801;50.972;7.856;2023-04-03T00:56:25;0.20;99.90
5556;DHT22;2801;50.972;7.856;2023-04-03T01:01:28;0.00;99.90
5556;DHT22;2801;50.972;7.856;2023-04-03T01:03:58;0.00;99.90
5556;DHT22;2801;50.972;7.856;2023-04-03T01:06:29;0.00;99.90
5556;DHT22;2801;50.972;7.856;2023-04-03T01:09:00;0.00;99.90
5556;DHT22;2801;50.972;7.856;2023-04-03T01:11:28;0.00;99.90
5556;DHT22;2801;50.972;7.856;2023-04-03T01:13:55;0.00;99.90
5556;DHT22;2801;50.972;7.856;2023-04-03T01:16:22;0.00;99.90
5556;DHT22;2801;50.972;7.856;2023-04-03T01:18:49;0.00;99.90
5556;DHT22;2801;50.972;7.856;2023-04-03T01:27:07;0.00;99.90
5556;DHT22;2801;50.972;7.856;2023-04-03T01:29:37;0.10;99.90
5556;DHT22;2801;50.972;7.856;2023-04-03T01:32:04;0.10;99.90
5556;DHT22;2801;50.972;7.856;2023-04-03T01:34:32;0.10;99.90
5556;DHT22;2801;50.972;7.856;2023-04-03T01:36:59;0.20;99.90
5556;DHT22;2801;50.972;7.856;2023-04-03T01:39:26;0.20;99.90
5556;DHT22;2801;50.972;7.856;2023-04-03T01:41:53;0.10;99.90
5556;DHT22;2801;50.972;7.856;2023-04-03T01:44:20;0.10;99.90
5556;DHT22;2801;50.972;7.856;2023-04-03T01:46:47;0.00;99.90
5556;DHT22;2801;50.972;7.856;2023-04-03T01:49:14;0.00;99.90
5556;DHT22;2801;50.972;7.856;2023-04-03T01:51:41;0.00;99.90
5556;DHT22;2801;50.972;7.856;2023-04-03T01:54:08;0.00;99.90
5556;DHT22;2801;50.972;7.856;2023-04-03T01:56:35;-0.10;99.90
5556;DHT22;2801;50.972;7.856;2023-04-03T01:59:02;-0.10;99.90
5556;DHT22;2801;50.972;7.856;2023-04-03T02:01:29;0.00;99.90
5556;DHT22;2801;50.972;7.856;2023-04-03T02:03:56;-0.20;99.90
5556;DHT22;2801;50.972;7.856;2023-04-03T02:06:23;-0.30;99.90
5556;DHT22;2801;50.972;7.856;2023-04-03T02:08:49;-0.30;99.90
5556;DHT22;2801;50.972;7.856;2023-04-03T02:11:16;-0.40;99.90
5556;DHT22;2801;50.972;7.856;2023-04-03T02:13:43;-0.50;99.90
5556;DHT22;2801;50.972;7.856;2023-04-03T02:16:11;-0.50;99.90
5556;DHT22;2801;50.972;7.856;2023-04-03T02:18:39;-0.60;99.90
5556;DHT22;2801;50.972;7.856;2023-04-03T02:21:06;-0.70;99.90
5556;DHT22;2801;50.972;7.856;2023-04-03T02:23:33;-0.80;99.90
5556;DHT22;2801;50.972;7.856;2023-04-03T02:26:08;-0.80;99.90
5556;DHT22;2801;50.972;7.856;2023-04-03T02:28:39;-0.90;99.90
5556;DHT22;2801;50.972;7.856;2023-04-03T02:31:08;-1.00;99.90
5556;DHT22;2801;50.972;7.856;2023-04-03T02:33:37;-1.10;99.90
5556;DHT22;2801;50.972;7.856;2023-04-03T02:36:05;-1.10;99.90
5556;DHT22;2801;50.972;7.856;2023-04-03T02:38:33;-1.20;99.90
5556;DHT22;2801;50.972;7.856;2023-04-03T02:41:03;-1.20;99.90
5556;DHT22;2801;50.972;7.856;2023-04-03T02:43:32;-1.00;99.90
5556;DHT22;2801;50.972;7.856;2023-04-03T02:45:59;-1.10;99.90
5556;DHT22;2801;50.972;7.856;2023-04-03T02:48:26;-1.10;99.90
5556;DHT22;2801;50.972;7.856;2023-04-03T02:50:54;-1.20;99.90
5556;DHT22;2801;50.972;7.856;2023-04-03T02:53:21;-1.30;99.90
5556;DHT22;2801;50.972;7.856;2023-04-03T02:55:49;-1.30;99.90
5556;DHT22;2801;50.972;7.856;2023-04-03T02:58:16;-1.30;99.90
5556;DHT22;2801;50.972;7.856;2023-04-03T03:00:43;-1.30;99.90
5556;DHT22;2801;50.972;7.856;2023-04-03T03:03:10;-1.40;99.90
5556;DHT22;2801;50.972;7.856;2023-04-03T03:05:37;-1.50;99.90
5556;DHT22;2801;50.972;7.856;2023-04-03T03:08:03;-1.50;99.90
5556;DHT22;2801;50.972;7.856;2023-04-03T03:10:31;-1.50;99.90
5556;DHT22;2801;50.972;7.856;2023-04-03T03:12:57;-1.50;99.90
5556;DHT22;2801;50.972;7.856;2023-04-03T03:15:24;-1.50;99.90
5556;DHT22;2801;50.972;7.856;2023-04-03T03:17:51;-1.50;99.90
5556;DHT22;2801;50.972;7.856;2023-04-03T03:20:18;-1.60;99.90
5556;DHT22;2801;50.972;7.856;2023-04-03T03:22:45;-1.60;99.90
5556;DHT22;2801;50.972;7.856;2023-04-03T03:25:12;-1.60;99.90
5556;DHT22;2801;50.972;7.856;2023-04-03T03:27:40;-1.60;99.90
5556;DHT22;2801;50.972;7.856;2023-04-03T03:30:07;-1.70;99.90
5556;DHT22;2801;50.972;7.856;2023-04-03T03:32:34;-1.70;99.90
5556;DHT22;2801;50.972;7.856;2023-04-03T03:35:01;-1.70;99.90
5556;DHT22;2801;50.972;7.856;2023-04-03T03:37:28;-1.80;99.90
5556;DHT22;2801;50.972;7.856;2023-04-03T03:39:56;-1.70;99.90
5556;DHT22;2801;50.972;7.856;2023-04-03T03:42:23;-1.80;99.90
5556;DHT22;2801;50.972;7.856;2023-04-03T03:44:49;-1.90;99.90
5556;DHT22;2801;50.972;7.856;2023-04-03T03:47:18;-1.90;99.90
5556;DHT22;2801;50.972;7.856;2023-04-03T03:49:45;-1.80;99.90
5556;DHT22;2801;50.972;7.856;2023-04-03T03:52:12;-2.00;99.90
5556;DHT22;2801;50.972;7.856;2023-04-03T03:54:39;-2.00;99.90
5556;DHT22;2801;50.972;7.856;2023-04-03T03:57:06;-2.00;99.90
5556;DHT22;2801;50.972;7.856;2023-04-03T03:59:33;-2.00;99.90
5556;DHT22;2801;50.972;7.856;2023-04-03T04:02:00;-2.00;99.90
5556;DHT22;2801;50.972;7.856;2023-04-03T04:04:27;-2.10;99.90
5556;DHT22;2801;50.972;7.856;2023-04-03T04:06:54;-2.10;99.90
5556;DHT22;2801;50.972;7.856;2023-04-03T04:09:21;-2.10;99.90
5556;DHT22;2801;50.972;7.856;2023-04-03T04:11:48;-2.20;99.90
5556;DHT22;2801;50.972;7.856;2023-04-03T04:14:15;-2.20;99.90
5556;DHT22;2801;50.972;7.856;2023-04-03T04:16:42;-2.20;99.90
5556;DHT22;2801;50.972;7.856;2023-04-03T04:19:09;-2.20;99.90
5556;DHT22;2801;50.972;7.856;2023-04-03T04:21:36;-2.30;99.90
5556;DHT22;2801;50.972;7.856;2023-04-03T04:24:03;-2.40;99.90
5556;DHT22;2801;50.972;7.856;2023-04-03T04:26:30;-2.40;99.90
5556;DHT22;2801;50.972;7.856;2023-04-03T04:28:57;-2.40;99.90
5556;DHT22;2801;50.972;7.856;2023-04-03T04:31:24;-2.40;99.90
5556;DHT22;2801;50.972;7.856;2023-04-03T04:33:52;-2.40;99.90
5556;DHT22;2801;50.972;7.856;2023-04-03T04:36:19;-2.40;99.90
5556;DHT22;2801;50.972;7.856;2023-04-03T04:38:47;-2.40;99.90
5556;DHT22;2801;50.972;7.856;2023-04-03T04:41:13;-2.30;99.90
5556;DHT22;2801;50.972;7.856;2023-04-03T04:43:41;-2.30;99.90
5556;DHT22;2801;50.972;7.856;2023-04-03T04:46:09;-2.30;99.90
5556;DHT22;2801;50.972;7.856;2023-04-03T04:48:38;-2.30;99.90
5556;DHT22;2801;50.972;7.856;2023-04-03T04:51:05;-2.30;99.90
5556;DHT22;2801;50.972;7.856;2023-04-03T04:53:32;-2.30;99.90
5556;DHT22;2801;50.972;7.856;2023-04-03T04:56:00;-2.30;99.90
5556;DHT22;2801;50.972;7.856;2023-04-03T04:58:27;-2.20;99.90
5556;DHT22;2801;50.972;7.856;2023-04-03T05:01:04;-2.20;99.90
5556;DHT22;2801;50.972;7.856;2023-04-03T05:03:33;-2.20;99.90
5556;DHT22;2801;50.972;7.856;2023-04-03T05:06:00;-2.20;99.90
5556;DHT22;2801;50.972;7.856;2023-04-03T05:08:27;-2.20;99.90
5556;DHT22;2801;50.972;7.856;2023-04-03T05:10:54;-2.20;99.90
5556;DHT22;2801;50.972;7.856;2023-04-03T05:13:22;-2.20;99.90
5556;DHT22;2801;50.972;7.856;2023-04-03T05:15:48;-2.30;99.90
5556;DHT22;2801;50.972;7.856;2023-04-03T05:18:16;-2.30;99.90
5556;DHT22;2801;50.972;7.856;2023-04-03T05:20:42;-2.30;99.90
5556;DHT22;2801;50.972;7.856;2023-04-03T05:23:10;-2.20;99.90
5556;DHT22;2801;50.972;7.856;2023-04-03T05:25:38;-1.70;99.90
5556;DHT22;2801;50.972;7.856;2023-04-03T05:28:06;-1.10;99.90
5556;DHT22;2801;50.972;7.856;2023-04-03T05:30:33;-0.30;99.90
5556;DHT22;2801;50.972;7.856;2023-04-03T05:33:00;0.10;99.90
5556;DHT22;2801;50.972;7.856;2023-04-03T05:35:27;0.70;99.90
5556;DHT22;2801;50.972;7.856;2023-04-03T05:37:55;1.30;99.90
5556;DHT22;2801;50.972;7.856;2023-04-03T05:40:22;2.00;99.90
5556;DHT22;2801;50.972;7.856;2023-04-03T05:42:49;2.80;99.90
5556;DHT22;2801;50.972;7.856;2023-04-03T05:45:16;3.40;99.90
5556;DHT22;2801;50.972;7.856;2023-04-03T05:47:43;4.10;99.90
5556;DHT22;2801;50.972;7.856;2023-04-03T05:50:10;4.80;99.90
5556;DHT22;2801;50.972;7.856;2023-04-03T05:52:39;5.60;99.90
5556;DHT22;2801;50.972;7.856;2023-04-03T05:55:09;6.30;99.90
5556;DHT22;2801;50.972;7.856;2023-04-03T05:57:36;6.90;99.90
5556;DHT22;2801;50.972;7.856;2023-04-03T06:00:07;7.40;99.90
5556;DHT22;2801;50.972;7.856;2023-04-03T06:02:36;7.90;99.90
5556;DHT22;2801;50.972;7.856;2023-04-03T06:05:04;8.60;99.90
5556;DHT22;2801;50.972;7.856;2023-04-03T06:07:31;9.20;99.90
5556;DHT22;2801;50.972;7.856;2023-04-03T06:09:58;9.90;99.90
5556;DHT22;2801;50.972;7.856;2023-04-03T06:12:25;10.40;99.90
5556;DHT22;2801;50.972;7.856;2023-04-03T06:14:52;10.50;99.90
5556;DHT22;2801;50.972;7.856;2023-04-03T06:17:19;10.90;99.90
5556;DHT22;2801;50.972;7.856;2023-04-03T06:19:46;11.40;99.90
5556;DHT22;2801;50.972;7.856;2023-04-03T06:22:13;11.90;99.90
5556;DHT22;2801;50.972;7.856;2023-04-03T06:24:41;12.00;99.90
5556;DHT22;2801;50.972;7.856;2023-04-03T06:27:10;12.00;99.90
5556;DHT22;2801;50.972;7.856;2023-04-03T06:29:37;11.90;99.90
5556;DHT22;2801;50.972;7.856;2023-04-03T06:32:05;12.10;99.90
5556;DHT22;2801;50.972;7.856;2023-04-03T06:34:32;11.80;99.90
5556;DHT22;2801;50.972;7.856;2023-04-03T06:36:58;11.40;99.90
5556;DHT22;2801;50.972;7.856;2023-04-03T06:39:26;11.50;99.90
5556;DHT22;2801;50.972;7.856;2023-04-03T06:41:53;11.40;96.20
5556;DHT22;2801;50.972;7.856;2023-04-03T06:44:21;10.80;96.20
5556;DHT22;2801;50.972;7.856;2023-04-03T06:46:47;10.30;99.90
5556;DHT22;2801;50.972;7.856;2023-04-03T06:49:15;10.20;99.10
5556;DHT22;2801;50.972;7.856;2023-04-03T06:51:42;10.50;99.90
5556;DHT22;2801;50.972;7.856;2023-04-03T06:54:09;10.50;99.90
5556;DHT22;2801;50.972;7.856;2023-04-03T06:56:36;10.70;93.70
5556;DHT22;2801;50.972;7.856;2023-04-03T06:59:03;10.50;98.60
5556;DHT22;2801;50.972;7.856;2023-04-03T07:01:30;10.60;99.90
5556;DHT22;2801;50.972;7.856;2023-04-03T07:03:58;11.20;98.60
5556;DHT22;2801;50.972;7.856;2023-04-03T07:06:25;11.70;99.90
5556;DHT22;2801;50.972;7.856;2023-04-03T07:08:54;12.40;99.90
5556;DHT22;2801;50.972;7.856;2023-04-03T07:11:22;13.00;99.90
5556;DHT22;2801;50.972;7.856;2023-04-03T07:13:49;13.60;99.90
5556;DHT22;2801;50.972;7.856;2023-04-03T07:16:17;13.30;95.60
5556;DHT22;2801;50.972;7.856;2023-04-03T07:18:44;13.70;99.90
5556;DHT22;2801;50.972;7.856;2023-04-03T07:21:12;13.80;98.40
5556;DHT22;2801;50.972;7.856;2023-04-03T07:23:39;13.60;97.10
5556;DHT22;2801;50.972;7.856;2023-04-03T07:26:07;12.50;94.80
5556;DHT22;2801;50.972;7.856;2023-04-03T07:28:35;12.60;99.70
5556;DHT22;2801;50.972;7.856;2023-04-03T07:31:05;12.40;93.80
5556;DHT22;2801;50.972;7.856;2023-04-03T07:33:35;11.60;85.00
5556;DHT22;2801;50.972;7.856;2023-04-03T07:36:04;11.00;88.30
5556;DHT22;2801;50.972;7.856;2023-04-03T07:38:34;10.40;90.80
5556;DHT22;2801;50.972;7.856;2023-04-03T07:41:03;10.30;88.40
5556;DHT22;2801;50.972;7.856;2023-04-03T07:43:30;9.90;92.30
5556;DHT22;2801;50.972;7.856;2023-04-03T07:45:57;10.10;93.60
5556;DHT22;2801;50.972;7.856;2023-04-03T07:48:26;10.30;89.20
5556;DHT22;2801;50.972;7.856;2023-04-03T07:50:59;10.40;96.00
5556;DHT22;2801;50.972;7.856;2023-04-03T07:53:28;10.60;89.30
5556;DHT22;2801;50.972;7.856;2023-04-03T07:55:57;10.60;91.20
5556;DHT22;2801;50.972;7.856;2023-04-03T07:58:25;10.30;85.40
5556;DHT22;2801;50.972;7.856;2023-04-03T08:00:52;10.00;85.40
5556;DHT22;2801;50.972;7.856;2023-04-03T08:03:19;10.00;92.80
5556;DHT22;2801;50.972;7.856;2023-04-03T08:05:48;9.90;84.80
5556;DHT22;2801;50.972;7.856;2023-04-03T08:08:19;10.30;90.60
5556;DHT22;2801;50.972;7.856;2023-04-03T08:10:49;10.30;88.40
5556;DHT22;2801;50.972;7.856;2023-04-03T08:13:18;9.90;83.70
5556;DHT22;2801;50.972;7.856;2023-04-03T08:15:46;10.30;93.90
5556;DHT22;2801;50.972;7.856;2023-04-03T08:18:17;10.60;84.60
5556;DHT22;2801;50.972;7.856;2023-04-03T08:20:44;10.30;81.80
5556;DHT22;2801;50.972;7.856;2023-04-03T08:23:12;10.60;87.80
5556;DHT22;2801;50.972;7.856;2023-04-03T08:25:41;10.60;86.40
5556;DHT22;2801;50.972;7.856;2023-04-03T08:28:12;10.30;84.00
5556;DHT22;2801;50.972;7.856;2023-04-03T08:30:40;10.10;79.40
5556;DHT22;2801;50.972;7.856;2023-04-03T08:33:09;10.10;82.60
5556;DHT22;2801;50.972;7.856;2023-04-03T08:35:41;9.70;92.00
5556;DHT22;2801;50.972;7.856;2023-04-03T08:38:10;9.60;90.70
5556;DHT22;2801;50.972;7.856;2023-04-03T08:40:37;10.10;89.70
5556;DHT22;2801;50.972;7.856;2023-04-03T08:45:50;10.90;89.50
5556;DHT22;2801;50.972;7.856;2023-04-03T08:50:59;11.40;80.40
5556;DHT22;2801;50.972;7.856;2023-04-03T08:53:40;11.00;73.40
5556;DHT22;2801;50.972;7.856;2023-04-03T08:56:14;11.20;78.60
5556;DHT22;2801;50.972;7.856;2023-04-03T08:58:56;11.30;78.80
5556;DHT22;2801;50.972;7.856;2023-04-03T09:01:33;10.90;74.20
5556;DHT22;2801;50.972;7.856;2023-04-03T09:04:13;10.60;70.20
5556;DHT22;2801;50.972;7.856;2023-04-03T09:06:50;10.30;72.50
5556;DHT22;2801;50.972;7.856;2023-04-03T09:09:32;10.00;72.20
5556;DHT22;2801;50.972;7.856;2023-04-03T09:15:06;10.40;69.30
5556;DHT22;2801;50.972;7.856;2023-04-03T09:18:03;10.80;72.10
5556;DHT22;2801;50.972;7.856;2023-04-03T09:20:43;11.00;72.20
5556;DHT22;2801;50.972;7.856;2023-04-03T09:23:27;11.00;69.40
5556;DHT22;2801;50.972;7.856;2023-04-03T09:26:07;10.70;79.60
5556;DHT22;2801;50.972;7.856;2023-04-03T09:28:40;10.70;62.50
5556;DHT22;2801;50.972;7.856;2023-04-03T09:31:27;10.10;62.80
5556;DHT22;2801;50.972;7.856;2023-04-03T09:34:02;9.80;68.50
5556;DHT22;2801;50.972;7.856;2023-04-03T09:36:41;9.60;64.60
5556;DHT22;2801;50.972;7.856;2023-04-03T09:39:20;9.90;69.60
5556;DHT22;2801;50.972;7.856;2023-04-03T09:44:37;9.80;63.70
5556;DHT22;2801;50.972;7.856;2023-04-03T09:47:37;9.70;66.20
5556;DHT22;2801;50.972;7.856;2023-04-03T09:50:23;9.90;66.50
5556;DHT22;2801;50.972;7.856;2023-04-03T09:52:51;9.40;62.40
5556;DHT22;2801;50.972;7.856;2023-04-03T09:55:26;9.90;75.70
5556;DHT22;2801;50.972;7.856;2023-04-03T10:00:32;10.30;62.50
5556;DHT22;2801;50.972;7.856;2023-04-03T10:03:02;10.40;66.00
5556;DHT22;2801;50.972;7.856;2023-04-03T10:05:36;9.20;59.80
5556;DHT22;2801;50.972;7.856;2023-04-03T10:10:37;8.60;63.50
5556;DHT22;2801;50.972;7.856;2023-04-03T10:16:07;8.80;66.40
5556;DHT22;2801;50.972;7.856;2023-04-03T10:24:19;10.20;64.10
5556;DHT22;2801;50.972;7.856;2023-04-03T10:27:05;10.50;59.80
5556;DHT22;2801;50.972;7.856;2023-04-03T10:29:46;10.40;57.30
5556;DHT22;2801;50.972;7.856;2023-04-03T10:42:08;11.30;57.30
5556;DHT22;2801;50.972;7.856;2023-04-03T10:48:07;11.20;57.50
5556;DHT22;2801;50.972;7.856;2023-04-03T10:58:39;11.60;58.70
5556;DHT22;2801;50.972;7.856;2023-04-03T11:01:13;10.80;58.30
5556;DHT22;2801;50.972;7.856;2023-04-03T11:03:48;10.10;62.90
5556;DHT22;2801;50.972;7.856;2023-04-03T11:06:21;10.40;62.90
5556;DHT22;2801;50.972;7.856;2023-04-03T11:09:02;10.30;69.90
5556;DHT22;2801;50.972;7.856;2023-04-03T11:11:38;10.50;62.10
5556;DHT22;2801;50.972;7.856;2023-04-03T11:14:35;10.50;63.40
5556;DHT22;2801;50.972;7.856;2023-04-03T11:17:13;10.00;61.20
5556;DHT22;2801;50.972;7.856;2023-04-03T11:22:42;9.90;66.40
5556;DHT22;2801;50.972;7.856;2023-04-03T11:27:49;9.50;69.10
5556;DHT22;2801;50.972;7.856;2023-04-03T11:33:23;8.80;62.00
5556;DHT22;2801;50.972;7.856;2023-04-03T11:35:58;8.70;80.00
5556;DHT22;2801;50.972;7.856;2023-04-03T11:38:43;8.10;64.70
5556;DHT22;2801;50.972;7.856;2023-04-03T11:41:14;7.70;75.70
5556;DHT22;2801;50.972;7.856;2023-04-03T11:43:57;7.60;70.80
5556;DHT22;2801;50.972;7.856;2023-04-03T11:46:55;7.60;73.20
5556;DHT22;2801;50.972;7.856;2023-04-03T11:50:17;7.40;75.30
5556;DHT22;2801;50.972;7.856;2023-04-03T11:53:25;7.30;74.80
5556;DHT22;2801;50.972;7.856;2023-04-03T11:55:58;7.20;73.00
5556;DHT22;2801;50.972;7.856;2023-04-03T12:01:05;7.30;75.70
5556;DHT22;2801;50.972;7.856;2023-04-03T12:03:55;7.20;79.40
5556;DHT22;2801;50.972;7.856;2023-04-03T12:12:00;6.90;73.00
5556;DHT22;2801;50.972;7.856;2023-04-03T12:14:47;6.80;74.10
5556;DHT22;2801;50.972;7.856;2023-04-03T12:17:27;7.10;82.30
5556;DHT22;2801;50.972;7.856;2023-04-03T12:19:55;7.30;76.90
5556;DHT22;2801;50.972;7.856;2023-04-03T12:22:23;7.30;74.50
5556;DHT22;2801;50.972;7.856;2023-04-03T12:24:53;7.10;72.00
5556;DHT22;2801;50.972;7.856;2023-04-03T12:27:23;7.20;74.50
5556;DHT22;2801;50.972;7.856;2023-04-03T12:32:34;7.00;72.50
5556;DHT22;2801;50.972;7.856;2023-04-03T12:35:44;7.00;68.20
5556;DHT22;2801;50.972;7.856;2023-04-03T12:47:28;7.10;68.20
5556;DHT22;2801;50.972;7.856;2023-04-03T12:50:00;7.10;70.50
5556;DHT22;2801;50.972;7.856;2023-04-03T12:52:37;7.00;69.00
5556;DHT22;2801;50.972;7.856;2023-04-03T12:55:17;7.20;73.90
5556;DHT22;2801;50.972;7.856;2023-04-03T12:57:47;7.10;71.70
5556;DHT22;2801;50.972;7.856;2023-04-03T13:00:22;7.20;74.90
5556;DHT22;2801;50.972;7.856;2023-04-03T13:02:59;7.10;71.60
5556;DHT22;2801;50.972;7.856;2023-04-03T13:05:31;7.20;73.50
5556;DHT22;2801;50.972;7.856;2023-04-03T13:08:05;7.40;72.00
5556;DHT22;2801;50.972;7.856;2023-04-03T13:11:06;7.10;71.90
5556;DHT22;2801;50.972;7.856;2023-04-03T13:13:37;7.40;75.10
5556;DHT22;2801;50.972;7.856;2023-04-03T13:16:10;7.30;71.80
5556;DHT22;2801;50.972;7.856;2023-04-03T13:18:38;7.40;72.10
5556;DHT22;2801;50.972;7.856;2023-04-03T13:21:17;7.60;76.40
5556;DHT22;2801;50.972;7.856;2023-04-03T13:23:50;7.50;70.20
5556;DHT22;2801;50.972;7.856;2023-04-03T13:26:33;7.70;76.10
5556;DHT22;2801;50.972;7.856;2023-04-03T13:29:05;7.80;72.90
5556;DHT22;2801;50.972;7.856;2023-04-03T13:31:43;7.70;72.90
5556;DHT22;2801;50.972;7.856;2023-04-03T13:34:13;7.50;73.20
5556;DHT22;2801;50.972;7.856;2023-04-03T13:36:54;7.50;70.90
5556;DHT22;2801;50.972;7.856;2023-04-03T13:39:27;7.50;76.70
5556;DHT22;2801;50.972;7.856;2023-04-03T13:41:59;7.80;80.20
5556;DHT22;2801;50.972;7.856;2023-04-03T13:44:36;8.10;74.60
5556;DHT22;2801;50.972;7.856;2023-04-03T13:47:16;8.10;72.80
5556;DHT22;2801;50.972;7.856;2023-04-03T13:52:53;8.00;70.20
5556;DHT22;2801;50.972;7.856;2023-04-03T13:58:00;7.90;72.30
5556;DHT22;2801;50.972;7.856;2023-04-03T14:00:56;8.00;74.50
5556;DHT22;2801;50.972;7.856;2023-04-03T14:03:37;8.00;73.20
5556;DHT22;2801;50.972;7.856;2023-04-03T14:06:14;7.80;71.10
5556;DHT22;2801;50.972;7.856;2023-04-03T14:08:44;7.70;71.30
5556;DHT22;2801;50.972;7.856;2023-04-03T14:11:14;8.00;76.00
5556;DHT22;2801;50.972;7.856;2023-04-03T14:13:46;8.10;72.50
5556;DHT22;2801;50.972;7.856;2023-04-03T14:16:20;7.90;70.30
5556;DHT22;2801;50.972;7.856;2023-04-03T14:18:50;7.80;71.00
5556;DHT22;2801;50.972;7.856;2023-04-03T14:21:19;7.60;69.30
5556;DHT22;2801;50.972;7.856;2023-04-03T14:23:47;7.60;75.20
5556;DHT22;2801;50.972;7.856;2023-04-03T14:26:21;7.50;69.00
5556;DHT22;2801;50.972;7.856;2023-04-03T14:28:52;7.60;69.50
5556;DHT22;2801;50.972;7.856;2023-04-03T14:31:22;7.60;69.70
5556;DHT22;2801;50.972;7.856;2023-04-03T14:33:50;7.80;73.00
5556;DHT22;2801;50.972;7.856;2023-04-03T14:36:21;7.70;71.50
5556;DHT22;2801;50.972;7.856;2023-04-03T14:38:53;7.80;74.20
5556;DHT22;2801;50.972;7.856;2023-04-03T14:41:23;7.70;69.50
5556;DHT22;2801;50.972;7.856;2023-04-03T14:43:53;7.60;74.70
5556;DHT22;2801;50.972;7.856;2023-04-03T14:46:30;7.70;70.30
5556;DHT22;2801;50.972;7.856;2023-04-03T14:49:22;7.60;68.70
5556;DHT22;2801;50.972;7.856;2023-04-03T14:51:52;7.50;70.70
5556;DHT22;2801;50.972;7.856;2023-04-03T14:54:22;7.40;69.60
5556;DHT22;2801;50.972;7.856;2023-04-03T14:56:54;7.40;71.70
5556;DHT22;2801;50.972;7.856;2023-04-03T14:59:23;7.50;73.10
5556;DHT22;2801;50.972;7.856;2023-04-03T15:01:51;7.60;70.90
5556;DHT22;2801;50.972;7.856;2023-04-03T15:04:20;7.60;70.70
5556;DHT22;2801;50.972;7.856;2023-04-03T15:06:48;7.80;71.90
5556;DHT22;2801;50.972;7.856;2023-04-03T15:09:26;7.90;74.00
5556;DHT22;2801;50.972;7.856;2023-04-03T15:11:54;8.10;75.60
5556;DHT22;2801;50.972;7.856;2023-04-03T15:14:22;8.10;75.20
5556;DHT22;2801;50.972;7.856;2023-04-03T15:17:15;8.10;72.80
5556;DHT22;2801;50.972;7.856;2023-04-03T15:19:44;8.00;74.00
5556;DHT22;2801;50.972;7.856;2023-04-03T15:22:16;8.00;73.80
5556;DHT22;2801;50.972;7.856;2023-04-03T15:24:45;8.00;74.60
5556;DHT22;2801;50.972;7.856;2023-04-03T15:27:13;7.70;70.30
5556;DHT22;2801;50.972;7.856;2023-04-03T15:29:43;7.70;71.80
5556;DHT22;2801;50.972;7.856;2023-04-03T15:32:10;7.70;71.60
5556;DHT22;2801;50.972;7.856;2023-04-03T15:34:38;7.50;74.10
5556;DHT22;2801;50.972;7.856;2023-04-03T15:37:06;7.60;74.80
5556;DHT22;2801;50.972;7.856;2023-04-03T15:39:33;7.60;74.60
5556;DHT22;2801;50.972;7.856;2023-04-03T15:42:00;7.60;74.70
5556;DHT22;2801;50.972;7.856;2023-04-03T15:44:33;7.40;71.10
5556;DHT22;2801;50.972;7.856;2023-04-03T15:47:01;7.20;72.40
5556;DHT22;2801;50.972;7.856;2023-04-03T15:49:29;7.10;72.20
5556;DHT22;2801;50.972;7.856;2023-04-03T15:51:57;7.10;70.60
5556;DHT22;2801;50.972;7.856;2023-04-03T15:54:23;7.10;71.90
5556;DHT22;2801;50.972;7.856;2023-04-03T15:56:53;7.20;72.10
5556;DHT22;2801;50.972;7.856;2023-04-03T15:59:20;6.90;71.20
5556;DHT22;2801;50.972;7.856;2023-04-03T16:01:48;6.80;72.80
5556;DHT22;2801;50.972;7.856;2023-04-03T16:04:18;6.70;72.00
5556;DHT22;2801;50.972;7.856;2023-04-03T16:06:48;6.70;72.40
5556;DHT22;2801;50.972;7.856;2023-04-03T16:09:16;6.70;72.80
5556;DHT22;2801;50.972;7.856;2023-04-03T16:11:43;6.50;71.60
5556;DHT22;2801;50.972;7.856;2023-04-03T16:14:10;6.50;72.70
5556;DHT22;2801;50.972;7.856;2023-04-03T16:16:38;6.40;72.10
5556;DHT22;2801;50.972;7.856;2023-04-03T16:19:06;6.50;73.80
5556;DHT22;2801;50.972;7.856;2023-04-03T16:21:33;6.40;73.80
5556;DHT22;2801;50.972;7.856;2023-04-03T16:24:01;6.30;72.70
5556;DHT22;2801;50.972;7.856;2023-04-03T16:26:29;6.30;73.70
5556;DHT22;2801;50.972;7.856;2023-04-03T16:28:56;6.30;74.40
5556;DHT22;2801;50.972;7.856;2023-04-03T16:31:24;6.30;75.30
5556;DHT22;2801;50.972;7.856;2023-04-03T16:33:53;6.20;75.30
5556;DHT22;2801;50.972;7.856;2023-04-03T16:36:21;6.10;76.60
5556;DHT22;2801;50.972;7.856;2023-04-03T16:38:48;6.20;76.80
5556;DHT22;2801;50.972;7.856;2023-04-03T16:41:15;6.40;77.00
5556;DHT22;2801;50.972;7.856;2023-04-03T16:43:41;6.20;76.70
5556;DHT22;2801;50.972;7.856;2023-04-03T16:46:13;6.20;75.70
5556;DHT22;2801;50.972;7.856;2023-04-03T16:48:40;6.10;76.60
5556;DHT22;2801;50.972;7.856;2023-04-03T16:51:07;6.10;76.80
5556;DHT22;2801;50.972;7.856;2023-04-03T16:53:34;5.90;75.90
5556;DHT22;2801;50.972;7.856;2023-04-03T16:56:02;5.70;76.70
5556;DHT22;2801;50.972;7.856;2023-04-03T16:58:29;5.60;77.20
5556;DHT22;2801;50.972;7.856;2023-04-03T17:00:56;5.50;78.30
5556;DHT22;2801;50.972;7.856;2023-04-03T17:03:23;5.50;78.80
5556;DHT22;2801;50.972;7.856;2023-04-03T17:05:52;5.50;78.40
5556;DHT22;2801;50.972;7.856;2023-04-03T17:08:19;5.50;79.50
5556;DHT22;2801;50.972;7.856;2023-04-03T17:10:46;5.50;80.30
5556;DHT22;2801;50.972;7.856;2023-04-03T17:13:15;5.40;80.20
5556;DHT22;2801;50.972;7.856;2023-04-03T17:15:42;5.30;79.40
5556;DHT22;2801;50.972;7.856;2023-04-03T17:18:09;5.30;80.50
5556;DHT22;2801;50.972;7.856;2023-04-03T17:20:37;5.20;80.10
5556;DHT22;2801;50.972;7.856;2023-04-03T17:23:05;5.20;79.80
5556;DHT22;2801;50.972;7.856;2023-04-03T17:25:32;5.10;80.40
5556;DHT22;2801;50.972;7.856;2023-04-03T17:27:59;5.00;79.10
5556;DHT22;2801;50.972;7.856;2023-04-03T17:30:26;5.00;79.50
5556;DHT22;2801;50.972;7.856;2023-04-03T17:32:53;4.90;79.90
5556;DHT22;2801;50.972;7.856;2023-04-03T17:35:21;4.80;80.20
5556;DHT22;2801;50.972;7.856;2023-04-03T17:37:48;4.70;80.20
5556;DHT22;2801;50.972;7.856;2023-04-03T17:40:16;4.60;80.00
5556;DHT22;2801;50.972;7.856;2023-04-03T17:42:44;4.60;80.30
5556;DHT22;2801;50.972;7.856;2023-04-03T17:45:11;4.60;81.50
5556;DHT22;2801;50.972;7.856;2023-04-03T17:47:38;4.50;81.50
5556;DHT22;2801;50.972;7.856;2023-04-03T17:50:05;4.50;82.30
5556;DHT22;2801;50.972;7.856;2023-04-03T17:52:33;4.40;82.60
5556;DHT22;2801;50.972;7.856;2023-04-03T17:54:59;4.40;82.90
5556;DHT22;2801;50.972;7.856;2023-04-03T17:57:26;4.20;82.80
5556;DHT22;2801;50.972;7.856;2023-04-03T17:59:53;4.20;82.40